Star City, Indiana
Current Conditions -  °F | °C
As of 12:15 PM on Monday 22 Dec 2014 (Local Time) from KGGP Reporting Station
Drizzle Drizzle  
Wind Chill: 29°   Ceiling: 800
Heat Index: 36°   Visibility: 4mi
Dew Point: 32°   Wind: 8mph
Humidity: 87%   Direction: 110°ESE
Pressure: 29.85"   Gusts: NA
Location:  40.97°N, 86.56°W
Report Text: KGGP 221815Z AUTO 11007KT 4SM DZ OVC008 02/00 A2985 RMK AO2
Loading
Personal Weather Stations






























Interactive Weather Map New forecast layout! Learn more

10-Day Weather Forecast

Advertisements
Track Severe Weather on mobile